Home / US / Illinois / Meigs

Meigs, IL Weather

Current Report for Thu Dec 14 2017

As of 2:53 AM CST THU DEC 14 2017

23°F -5°cMeigs weather conditions : Partly Cloudy

Partly Cloudy

Barometer: 29.90 inHg. rising

Humidity: 74%

Wind: NW. 12mph

Wind Gust: 14mph

Wind Chill: 11°F

Dew Point: 16°F steady

Visibility: 10.00mi.

Sunrise: 7:09 AM

Sunset: 4:19 PM

Moon Phase: Waning Crescent Moon

Daily and Hourly Summary

Loading Meigs IL Summary and Hourly data for today, tonight and tomorrow...
Forecast for Meigs, IL:
(Forecast based on TAF for )
0200 PM CST THU DEC 14 2017
  
AFTERNOON EVENING OVERNIGHT
Partly Cloudy Partly Cloudy Partly Cloudy
Partly
Cloudy
Partly
Cloudy
Partly
Cloudy
Original Encoded TAF:
Dated: 0200 PM CST THU DEC 14 2017
2017/12/14 09:54
TAF 
      AMD KMDW 140851Z 1409/1512 33011KT P6SM FEW020 SCT040 SCT250 
     FM142000 29008KT P6SM SCT250 
     FM150000 24007KT P6SM BKN045 BKN060

Temperatures Today (View More Charts)

Meigs, IL updates by locals

Write your own report, forecast, or traffic update:

Please note by clicking on "Post" you acknowledge that you have read the Terms of Service and the report and/or forecast you are posting is in compliance with such terms. Be respectful. An inappropriate post will be removed by a moderator. If you are not finding the information you want, please be sure to note the navigation tabs just above the breadcrumbs, which are links to other data relating to this city.